Terminal Aerodrome Forecast
Issued by NWS

Home | Current Version | Previous Version | Text Only | Print | Product List | Glossary On
Versions: 1 2 3 4 5 6 7 8 9 10 11 12
000
FTUS45 KGJT 301126
TAFCNY
TAF
KCNY 301126Z 3012/3112 34003KT P6SM SCT150 SCT200
     FM301400 12006KT P6SM SCT120 BKN150
     FM301700 01004KT P6SM SCT120 SCT250
     FM302000 30007KT P6SM SCT110 SCT250
     FM310200 33008KT P6SM SCT250
     FM311100 35006KT P6SM FEW250=

USA.gov is the U.S. government's official web portal to all federal, state and local government web resources and services.